»·PEaware :: APA5357 CYXY-CYVR

APA5357 :: CYXY-CYVR

FLIGHT INFORMATION

Flight Status: Arrived
Operator: Unknown
More flights by this operator :: More flights under this callsign
Pilot: Stacy K. (11621)
Aircraft: BOEING 737-800
(B738)
More flights by this aircraft type
Origin: CYXY Whitehorse Intl
Canada
Destination: CYVR Vancouver Intl
Canada
More flights between these airports :: More routes between these airports
Route: YXY NCA34 DUXAR TRENA WHSLR4
File this flight plan on PilotEdge
Remarks: PBN / A1B1C1D1S1S2 DOF / 180518 REG / N1404PK EET / CZVR0044 SEL / DEFK OPR / APA PER / C RMK / TCAS SIMBRIEF
Altitude:
(Current/Filed)
35,000ft
Speed:
(Current/Filed)
456kts
Departed: 17-May-18 04:54 PM
Arrived: 17-May-18 06:52 PM
Distance/Time
Traveled:
800nm/1:58
Distance/Time
To Go:
Arrived

Flight Plot

Page will automatically refresh every two minutes.

Flight plan parsing failed; only flown route is shown


Map Options




Map Legend


Flown Route
Filed Route
Departure Airport
Arrival Airport
Navaid (VOR, NDB)
Fix

Horizontal Profiles

Position Reports

Time Latitude Longitude Heading Altitude Ground
Speed
17-May-18 16:19 60.714172 -135.075089 288 2326ft 0kts
17-May-18 16:20 60.714172 -135.075089 288 2326ft 0kts
17-May-18 16:21 60.714172 -135.075089 288 2326ft 0kts
17-May-18 16:22 60.714172 -135.075089 288 2326ft 0kts
17-May-18 16:23 60.714172 -135.075089 288 2326ft 0kts
17-May-18 16:24 60.714172 -135.075089 288 2326ft 0kts
17-May-18 16:25 60.714172 -135.075089 288 2326ft 0kts
17-May-18 16:26 60.714172 -135.075089 288 2326ft 0kts
17-May-18 16:27 60.714172 -135.075089 288 2326ft 0kts
17-May-18 16:28 60.714172 -135.075089 288 2326ft 0kts
17-May-18 16:29 60.714172 -135.075089 288 2326ft 0kts
17-May-18 16:30 60.714172 -135.075089 288 2326ft 0kts
17-May-18 16:31 60.714172 -135.075089 288 2326ft 0kts
17-May-18 16:32 60.714172 -135.075089 288 2326ft 0kts
17-May-18 16:33 60.714172 -135.075089 288 2326ft 0kts
17-May-18 16:34 60.714172 -135.075089 288 2326ft 0kts
17-May-18 16:35 60.714172 -135.075089 288 2326ft 0kts
17-May-18 16:36 60.714172 -135.075089 288 2326ft 0kts
17-May-18 16:37 60.714172 -135.075089 288 2326ft 0kts
17-May-18 16:38 60.714172 -135.075089 288 2326ft 0kts
17-May-18 16:39 60.714172 -135.075089 288 2326ft 0kts
17-May-18 16:40 60.714172 -135.075089 288 2326ft 0kts
17-May-18 16:41 60.714172 -135.075089 288 2326ft 0kts
17-May-18 16:42 60.714021 -135.074013 289 2326ft 2kts
17-May-18 16:43 60.713767 -135.073465 340 2326ft 0kts
17-May-18 16:44 60.713767 -135.073465 340 2326ft 0kts
17-May-18 16:45 60.714431 -135.073952 340 2326ft 13kts
17-May-18 16:46 60.717849 -135.076495 339 2326ft 12kts
17-May-18 16:47 60.719306 -135.076047 68 2326ft 0kts
17-May-18 16:48 60.719562 -135.075310 30 2326ft 11kts
17-May-18 16:49 60.721160 -135.076501 128 2326ft 4kts
17-May-18 16:50 60.715685 -135.072114 159 2326ft 5kts
17-May-18 16:51 60.712382 -135.072689 317 2326ft 14kts
17-May-18 16:52 60.716512 -135.075486 339 2326ft 22kts
17-May-18 16:53 60.719410 -135.075390 91 2326ft 8kts
17-May-18 16:54 60.694226 -135.054935 158 2904ft 194kts
17-May-18 16:55 60.634901 -135.011615 150 5957ft 255kts
17-May-18 16:56 60.573384 -134.926518 146 9836ft 278kts
17-May-18 16:57 60.503652 -134.825652 146 12352ft 349kts
17-May-18 16:58 60.419467 -134.705179 147 15361ft 386kts
17-May-18 16:59 60.328728 -134.575818 148 18270ft 411kts
17-May-18 17:00 60.232585 -134.439265 148 20887ft 433kts
17-May-18 17:01 60.131230 -134.297445 149 23148ft 453kts
17-May-18 17:02 60.026880 -134.147882 146 25132ft 472kts
17-May-18 17:03 59.922971 -133.979871 144 26992ft 487kts
17-May-18 17:04 59.816322 -133.807426 144 28640ft 499kts
17-May-18 17:05 59.709100 -133.634287 145 30617ft 496kts
17-May-18 17:06 59.601275 -133.463326 145 32254ft 497kts
17-May-18 17:07 59.493363 -133.292539 146 33743ft 498kts
17-May-18 17:08 59.384711 -133.123547 146 34894ft 499kts
17-May-18 17:09 59.276851 -132.956819 146 35014ft 492kts
17-May-18 17:10 59.169006 -132.791414 146 35014ft 492kts
17-May-18 17:11 59.061066 -132.627381 146 35027ft 493kts
17-May-18 17:12 58.954691 -132.466755 146 35029ft 493kts
17-May-18 17:13 58.846315 -132.304450 146 35018ft 493kts
17-May-18 17:14 58.737878 -132.143072 146 35010ft 492kts
17-May-18 17:15 58.629300 -131.982935 146 35007ft 492kts
17-May-18 17:16 58.520218 -131.822440 146 35004ft 493kts
17-May-18 17:17 58.410752 -131.664118 146 34995ft 493kts
17-May-18 17:18 58.301315 -131.507660 146 34987ft 493kts
17-May-18 17:19 58.191326 -131.350917 146 34986ft 495kts
17-May-18 17:20 58.081054 -131.195068 146 35073ft 494kts
17-May-18 17:21 57.970116 -131.039050 145 35127ft 495kts
17-May-18 17:22 57.859682 -130.884060 146 35127ft 495kts
17-May-18 17:23 57.748381 -130.730450 146 35128ft 497kts
17-May-18 17:24 57.637022 -130.578012 146 35128ft 497kts
17-May-18 17:25 57.524865 -130.425786 146 35128ft 498kts
17-May-18 17:26 57.412778 -130.274628 146 35128ft 498kts
17-May-18 17:27 57.300512 -130.123952 146 35127ft 497kts
17-May-18 17:28 57.188425 -129.974262 145 35126ft 497kts
17-May-18 17:29 57.075689 -129.825425 146 35108ft 500kts
17-May-18 17:30 56.962295 -129.677039 146 35105ft 499kts
17-May-18 17:31 56.849374 -129.530360 146 35102ft 499kts
17-May-18 17:32 56.733583 -129.390978 152 35100ft 497kts
17-May-18 17:33 56.611983 -129.271600 153 35097ft 496kts
17-May-18 17:34 56.489807 -129.154630 154 35096ft 498kts
17-May-18 17:35 56.367092 -129.037929 154 35094ft 498kts
17-May-18 17:36 56.244173 -128.921819 153 35093ft 499kts
17-May-18 17:37 56.141638 -128.825574 153 35093ft 499kts
17-May-18 17:38 56.018052 -128.710370 153 35093ft 500kts
17-May-18 17:39 55.894744 -128.596915 153 35095ft 500kts
17-May-18 17:40 55.770688 -128.483951 153 35100ft 500kts
17-May-18 17:41 55.646494 -128.370974 153 35102ft 501kts
17-May-18 17:42 55.522518 -128.258896 153 35104ft 501kts
17-May-18 17:43 55.398198 -128.146926 153 35107ft 500kts
17-May-18 17:44 55.274227 -128.035561 153 35112ft 500kts
17-May-18 17:45 55.150063 -127.925116 153 35114ft 505kts
17-May-18 17:46 55.024746 -127.815025 153 35117ft 504kts
17-May-18 17:47 54.899252 -127.705329 153 35121ft 503kts
17-May-18 17:48 54.774160 -127.596709 153 35122ft 503kts
17-May-18 17:49 54.648829 -127.488604 153 35123ft 504kts
17-May-18 17:50 54.523287 -127.381130 153 35120ft 503kts
17-May-18 17:51 54.397926 -127.274520 153 35117ft 503kts
17-May-18 17:52 54.272350 -127.168335 153 35116ft 504kts
17-May-18 17:53 54.146517 -127.062539 153 35126ft 504kts
17-May-18 17:54 54.020502 -126.957297 153 35123ft 505kts
17-May-18 17:55 53.894195 -126.852461 152 35119ft 505kts
17-May-18 17:56 53.767835 -126.748578 152 35113ft 505kts
17-May-18 17:57 53.641101 -126.645180 152 35103ft 506kts
17-May-18 17:58 53.514019 -126.542103 152 35088ft 507kts
17-May-18 17:59 53.386367 -126.439533 153 35070ft 507kts
17-May-18 18:00 53.259472 -126.338033 152 35061ft 507kts
17-May-18 18:01 53.131961 -126.236508 152 35053ft 507kts
17-May-18 18:02 53.004730 -126.135361 152 35045ft 507kts
17-May-18 18:03 52.877140 -126.034298 152 35039ft 508kts
17-May-18 18:04 52.749116 -125.933970 152 35035ft 510kts
17-May-18 18:05 52.620646 -125.834532 152 35033ft 510kts
17-May-18 18:06 52.492247 -125.735364 152 35031ft 510kts
17-May-18 18:07 52.363846 -125.637305 153 35030ft 510kts
17-May-18 18:08 52.234987 -125.540000 153 35037ft 510kts
17-May-18 18:09 52.105978 -125.443264 153 35041ft 510kts
17-May-18 18:10 51.977297 -125.347157 153 35046ft 509kts
17-May-18 18:11 51.848299 -125.251406 153 35048ft 509kts
17-May-18 18:12 51.719955 -125.156485 153 35043ft 508kts
17-May-18 18:13 51.591527 -125.061852 153 35046ft 507kts
17-May-18 18:14 51.463100 -124.967265 153 34635ft 508kts
17-May-18 18:15 51.334644 -124.873141 153 32829ft 505kts
17-May-18 18:16 51.208835 -124.781993 153 31032ft 489kts
17-May-18 18:17 51.086527 -124.694181 153 29228ft 473kts
17-May-18 18:18 50.968203 -124.610673 153 27427ft 457kts
17-May-18 18:19 50.854256 -124.530385 153 25625ft 440kts
17-May-18 18:20 50.744506 -124.453440 154 23824ft 423kts
17-May-18 18:21 50.639280 -124.379677 154 22069ft 408kts
17-May-18 18:22 50.537463 -124.307920 154 20470ft 395kts
17-May-18 18:23 50.438060 -124.237820 152 20055ft 388kts
17-May-18 18:24 50.341872 -124.159704 150 19899ft 391kts
17-May-18 18:25 50.247138 -124.082147 150 18579ft 379kts
17-May-18 18:26 50.154652 -124.006668 150 17379ft 371kts
17-May-18 18:27 50.064299 -123.933118 150 16178ft 362kts
17-May-18 18:28 49.976111 -123.861231 150 14978ft 354kts
17-May-18 18:29 49.889840 -123.791304 149 13775ft 344kts
17-May-18 18:30 49.805543 -123.723552 149 12580ft 339kts
17-May-18 18:31 49.722871 -123.657331 150 11418ft 330kts
17-May-18 18:32 49.642277 -123.593342 150 10409ft 302kts
17-May-18 18:33 49.569411 -123.535543 151 9990ft 293kts
17-May-18 18:34 49.497089 -123.477267 150 9988ft 293kts
17-May-18 18:35 49.425242 -123.418095 150 9988ft 292kts
17-May-18 18:36 49.354448 -123.360223 150 9989ft 292kts
17-May-18 18:37 49.316961 -123.328780 145 9971ft 291kts
17-May-18 18:38 49.281994 -123.225044 104 8680ft 273kts
17-May-18 18:39 49.265955 -123.112073 100 7439ft 265kts
17-May-18 18:40 49.251950 -123.000543 100 6237ft 266kts
17-May-18 18:41 49.239412 -122.901162 100 5030ft 219kts
17-May-18 18:42 49.229261 -122.819838 99 4097ft 215kts
17-May-18 18:43 49.222796 -122.734186 97 3992ft 216kts
17-May-18 18:44 49.192123 -122.656058 135 3341ft 214kts
17-May-18 18:45 49.147990 -122.687821 244 3014ft 207kts
17-May-18 18:46 49.136791 -122.772827 273 2998ft 207kts
17-May-18 18:47 49.149619 -122.856681 283 2998ft 191kts
17-May-18 18:48 49.159469 -122.936783 278 2915ft 196kts
17-May-18 18:49 49.168247 -123.014007 278 1926ft 181kts
17-May-18 18:50 49.176456 -123.086898 277 989ft 158kts
17-May-18 18:51 49.183869 -123.149351 279 157ft 136kts
17-May-18 18:52 49.187312 -123.181714 315 24ft 22kts
17-May-18 18:53 49.187821 -123.182393 318 24ft 0kts
17-May-18 18:54 49.190005 -123.185061 321 24ft 13kts
17-May-18 18:55 49.191849 -123.185125 52 24ft 3kts
17-May-18 18:56 49.192021 -123.184783 52 24ft 0kts
17-May-18 18:57 49.192021 -123.184783 52 24ft 0kts
17-May-18 18:58 49.192021 -123.184783 52 24ft 0kts
17-May-18 18:59 49.192021 -123.184783 52 24ft 0kts
17-May-18 19:00 49.192021 -123.184783 52 24ft 0kts

Navigation Log

Ident Type
Flight plan parsing failed, navigation log unavailable